アスタナ の空港の天気 - METARとTAF

アスタナ国際空港 ( UACC / TSE ) - カザフスタン アスタナ
飛行場実況気象(Metar)
観測時間02/28 06:30 +06 (02/28 00:30 UTC)
風向・風速北 1m/s
視程6000m
天気現象
全天の4割程度の雲 雲底高度 340m
全天を覆う雲 雲底高度 2320m
気温-6℃
湿度93%
気圧1026hPa
METARUACC 280030Z 35001MPS 6000 SCT011 OVC076 M06/M07 Q1026 R04/4/0550 NOSIG RMK QFE737/0983
過去の天気等 Google飛行場航空写真 Wunderground天気予報

過去48時間のMETAR

飛行場予報(TAF)
発表時間: 2/28 05:00 +06 (2/27 23:00 UTC)
予報対象時間: 28日6時 +06 ~ 1日6時 +06
風向・風速北北東 5m/s
視程10km以上
全天の8割程度の雲 雲底高度 210m
全天の8割程度の雲 雲底高度 910m
28日6時 +06 ~ 28日11時 +06 に一時的に
風向・風速不定 2m/s
視程3,000m
天気現象弱い雪 もや
全天の4割程度の雲 雲底高度 150m
28日21時 +06 ~ 1日6時 +06 に一時的に
視程3,000m
天気現象もや
全天の4割程度の雲 雲底高度 120m
TAF UACC 272300Z 2800/2824 02005MPS 9999 BKN007 BKN030 TXM05/2809Z TNM14/2824Z
TEMPO 2800/2805 VRB02MPS 3000 -SN BR SCT005
TEMPO 2815/2824 3000 BR SCT004